Current Weather

King Abdulaziz Ab

King Abdulaziz Ab, Saudi Arabia (OEDR)

Report from: Monday, July 22, 2024 2:00 PM +03
Current time: Monday, July 22, 2024 2:20 PM +03

Nearby weather – Weather history – Daily summaries
Weather forecast

Temperature46.0°C (114.8°F)
Heat index42.9°C (109.2°F)
Dew point6.0°C (42.8°F)
Winds 15 kts (7.7 m/s, 17.3 mph) North (350°)
Clouds Sky clear
Altimeter29.38 in.Hg (995 mB)
Relative humidity9 %
Density altitude4,189 ft. (1,277 m)
Remarks Ceiling and visibility OK
Flight conditions Visual Meteorological Conditions
Raw dataOEDR 221100Z 35015KT CAVOK 46/06 Q0995
An error has occurred. This application may no longer respond until reloaded. Reload 🗙